createdAt,value
2023-02-02T00:01:25.327Z,100191.03
2023-02-02T00:03:53.090Z,100197.97
2023-02-02T00:06:21.156Z,100191.94
2023-02-02T00:08:49.514Z,100190.91
2023-02-02T00:11:17.864Z,100178.47
2023-02-02T00:13:47.454Z,100178.47
2023-02-02T00:16:38.356Z,100187.34
2023-02-02T00:19:08.618Z,100181.97
2023-02-02T00:21:37.843Z,100179.88
2023-02-02T00:24:06.258Z,100179.78
2023-02-02T00:26:33.884Z,100177.13
2023-02-02T00:29:02.873Z,100172.59
2023-02-02T00:31:30.441Z,100167.22
2023-02-02T00:33:57.955Z,100182.78
2023-02-02T00:36:25.511Z,100170.69
2023-02-02T00:38:53.867Z,100184.63
2023-02-02T00:41:21.729Z,100179.47
2023-02-02T00:44:09.312Z,100187.09
2023-02-02T00:46:39.592Z,100192.31
2023-02-02T00:49:07.149Z,100190.72
2023-02-02T00:51:34.688Z,100182.66
2023-02-02T00:54:02.228Z,100186.84
2023-02-02T00:56:29.714Z,100186.69
2023-02-02T00:58:57.212Z,100182.91
2023-02-02T01:01:24.868Z,100184.72
2023-02-02T01:03:53.843Z,100187.34
2023-02-02T01:06:21.402Z,100185.31
2023-02-02T01:08:48.857Z,100184.44
2023-02-02T01:11:16.423Z,100192.06
2023-02-02T01:13:44.689Z,100190.41
2023-02-02T01:16:12.970Z,100195.44
2023-02-02T01:18:40.464Z,100189.84
2023-02-02T01:21:11.530Z,100194.19
2023-02-02T01:23:40.255Z,100194.63
2023-02-02T01:26:10.090Z,100196.50
2023-02-02T01:28:37.916Z,100193.88
2023-02-02T01:31:10.302Z,100187.50
2023-02-02T01:33:38.196Z,100191.09
2023-02-02T01:36:11.765Z,100190.22
2023-02-02T01:38:39.315Z,100192.94
2023-02-02T01:41:08.022Z,100194.44
2023-02-02T01:43:58.203Z,100193.25
2023-02-02T01:46:27.630Z,100195.00
2023-02-02T01:49:00.584Z,100194.22
2023-02-02T01:51:34.283Z,100193.44
2023-02-02T01:54:03.855Z,100204.94
2023-02-02T01:56:35.461Z,100203.88
2023-02-02T01:59:04.345Z,100203.59
2023-02-02T02:01:32.054Z,100202.78
2023-02-02T02:04:00.096Z,100207.78
2023-02-02T02:06:28.004Z,100211.19
2023-02-02T02:09:00.144Z,100208.94
2023-02-02T02:11:28.394Z,100211.53
2023-02-02T02:14:16.581Z,100211.31
2023-02-02T02:16:54.988Z,100219.97
2023-02-02T02:20:09.391Z,100218.28
2023-02-02T02:23:25.423Z,100212.19
2023-02-02T02:26:32.436Z,100207.69
2023-02-02T02:29:17.770Z,100206.63
2023-02-02T02:32:08.784Z,100203.13
2023-02-02T02:34:52.542Z,100209.13
2023-02-02T02:37:28.539Z,100198.69
2023-02-02T02:40:02.748Z,100200.59
2023-02-02T02:42:34.454Z,100198.91
2023-02-02T02:45:04.943Z,100204.19
2023-02-02T02:47:35.727Z,100205.78
2023-02-02T02:50:03.228Z,100208.28
2023-02-02T02:52:31.026Z,100207.22
2023-02-02T02:55:00.497Z,100210.13
2023-02-02T02:57:42.237Z,100223.56
2023-02-02T03:00:24.501Z,100213.41
2023-02-02T03:02:59.167Z,100210.03
2023-02-02T03:05:35.029Z,100208.97
2023-02-02T03:08:10.566Z,100215.44
2023-02-02T03:10:40.020Z,100214.34
2023-02-02T03:13:09.585Z,100219.66
2023-02-02T03:15:37.478Z,100210.94
2023-02-02T03:18:06.537Z,100218.84
2023-02-02T03:20:34.051Z,100212.13
2023-02-02T03:23:01.550Z,100203.28
2023-02-02T03:25:29.186Z,100200.59
2023-02-02T03:27:56.807Z,100199.41
2023-02-02T03:30:24.410Z,100197.53
2023-02-02T03:32:53.806Z,100209.97
2023-02-02T03:35:23.169Z,100195.75
2023-02-02T03:37:50.877Z,100203.56
2023-02-02T03:40:19.174Z,100211.72
2023-02-02T03:42:46.772Z,100206.91
2023-02-02T03:45:14.344Z,100218.19
2023-02-02T03:47:41.844Z,100210.31
2023-02-02T03:50:10.744Z,100205.34
2023-02-02T03:52:39.624Z,100213.97
2023-02-02T03:55:08.187Z,100208.91
2023-02-02T03:57:35.814Z,100213.13
2023-02-02T04:00:03.372Z,100211.25
2023-02-02T04:02:30.874Z,100216.53
2023-02-02T04:04:58.394Z,100207.38
2023-02-02T04:07:25.997Z,100200.09
2023-02-02T04:09:54.829Z,100209.81
2023-02-02T04:12:22.321Z,100216.06
2023-02-02T04:14:49.851Z,100219.41
2023-02-02T04:17:17.338Z,100208.97
2023-02-02T04:19:44.849Z,100210.56
2023-02-02T04:22:12.449Z,100213.13
2023-02-02T04:24:39.926Z,100207.00
2023-02-02T04:27:08.783Z,100210.88
2023-02-02T04:29:36.263Z,100211.81
2023-02-02T04:32:03.785Z,100216.06
2023-02-02T04:34:31.778Z,100213.97
2023-02-02T04:36:59.303Z,100211.25
2023-02-02T04:39:26.995Z,100218.56
2023-02-02T04:41:54.479Z,100212.22
2023-02-02T04:44:23.349Z,100216.56
2023-02-02T04:46:50.847Z,100220.34
2023-02-02T04:49:18.395Z,100215.31
2023-02-02T04:51:45.907Z,100229.44
2023-02-02T04:54:13.389Z,100223.50
2023-02-02T04:56:40.920Z,100222.59
2023-02-02T04:59:08.469Z,100217.97
2023-02-02T05:01:37.317Z,100207.31
2023-02-02T05:04:05.084Z,100212.81
2023-02-02T05:06:32.592Z,100212.03
2023-02-02T05:09:01.086Z,100209.38
2023-02-02T05:11:28.813Z,100217.91
2023-02-02T05:13:56.535Z,100214.47
2023-02-02T05:16:27.014Z,100207.69
2023-02-02T05:18:59.300Z,100215.47
2023-02-02T05:21:26.915Z,100219.03
2023-02-02T05:23:54.375Z,100218.75
2023-02-02T05:26:24.517Z,100206.75
2023-02-02T05:28:52.125Z,100212.81
2023-02-02T05:31:20.694Z,100216.38
2023-02-02T05:33:48.231Z,100212.97
2023-02-02T05:36:17.069Z,100218.13
2023-02-02T05:38:44.535Z,100218.91
2023-02-02T05:41:12.010Z,100218.06
2023-02-02T05:43:39.560Z,100224.22
2023-02-02T05:46:07.088Z,100218.81
2023-02-02T05:48:34.546Z,100212.63
2023-02-02T05:51:06.193Z,100211.09
2023-02-02T05:53:34.976Z,100216.00
2023-02-02T05:56:02.778Z,100215.22
2023-02-02T05:58:30.489Z,100211.22
2023-02-02T06:00:57.954Z,100217.06
2023-02-02T06:03:25.541Z,100217.28
2023-02-02T06:05:53.089Z,100217.97
2023-02-02T06:08:20.651Z,100230.41
2023-02-02T06:10:49.440Z,100217.78
2023-02-02T06:13:16.924Z,100233.84
2023-02-02T06:15:44.422Z,100231.81
2023-02-02T06:18:12.024Z,100232.50
2023-02-02T06:20:39.568Z,100226.66
2023-02-02T06:25:35.202Z,100235.53
2023-02-02T06:28:04.313Z,100234.66
2023-02-02T06:30:31.775Z,100234.59
2023-02-02T06:33:00.312Z,100237.34
2023-02-02T06:35:28.057Z,100239.84
2023-02-02T06:37:55.535Z,100243.22
2023-02-02T06:40:23.036Z,100243.19
2023-02-02T06:42:56.684Z,100245.94
2023-02-02T06:45:26.078Z,100235.44
2023-02-02T06:47:54.491Z,100248.00
2023-02-02T06:50:21.917Z,100253.03
2023-02-02T06:52:49.768Z,100244.47
2023-02-02T06:55:17.807Z,100250.53
2023-02-02T06:57:45.351Z,100252.63
2023-02-02T07:00:14.145Z,100249.66
2023-02-02T07:02:46.022Z,100258.56
2023-02-02T07:05:13.569Z,100261.16
2023-02-02T07:07:41.045Z,100253.13
2023-02-02T07:10:09.557Z,100258.44
2023-02-02T07:12:57.007Z,100275.44
2023-02-02T07:15:24.781Z,100266.88
2023-02-02T07:17:55.516Z,100267.34
2023-02-02T07:20:23.005Z,100265.56
2023-02-02T07:22:50.458Z,100267.31
2023-02-02T07:25:18.147Z,100273.09
2023-02-02T07:27:46.796Z,100280.44
2023-02-02T07:30:15.974Z,100274.41
2023-02-02T07:32:47.883Z,100278.56
2023-02-02T07:35:16.812Z,100285.44
2023-02-02T07:37:44.710Z,100282.00
2023-02-02T07:40:13.057Z,100285.53
2023-02-02T07:42:40.523Z,100287.00
2023-02-02T07:45:36.345Z,100282.94
2023-02-02T07:47:59.583Z,100292.72
2023-02-02T07:50:30.526Z,100298.13
2023-02-02T07:52:59.760Z,100290.03
2023-02-02T07:55:27.490Z,100292.59
2023-02-02T07:57:58.744Z,100300.72
2023-02-02T08:00:26.843Z,100296.22
2023-02-02T08:02:54.614Z,100301.44
2023-02-02T08:05:22.876Z,100306.00
2023-02-02T08:07:51.927Z,100296.13
2023-02-02T08:10:19.713Z,100305.81
2023-02-02T08:12:47.247Z,100305.97
2023-02-02T08:15:14.853Z,100305.91
2023-02-02T08:17:45.878Z,100307.22
2023-02-02T08:20:14.432Z,100317.81
2023-02-02T08:22:41.991Z,100321.78
2023-02-02T08:25:11.178Z,100318.50
2023-02-02T08:27:38.719Z,100321.06
2023-02-02T08:30:06.948Z,100322.91
2023-02-02T08:32:34.699Z,100319.56
2023-02-02T08:35:02.191Z,100334.41
2023-02-02T08:37:29.698Z,100328.50
2023-02-02T08:39:57.255Z,100328.19
2023-02-02T08:42:26.218Z,100327.44
2023-02-02T08:46:07.790Z,100338.19
2023-02-02T08:47:41.778Z,100333.66
2023-02-02T08:50:11.071Z,100339.88
2023-02-02T08:52:38.615Z,100343.47
2023-02-02T08:55:07.510Z,100346.41
2023-02-02T08:57:36.382Z,100349.88
2023-02-02T09:00:04.924Z,100362.50
2023-02-02T09:02:32.457Z,100361.66
2023-02-02T09:05:00.049Z,100363.13
2023-02-02T09:07:27.548Z,100365.09
2023-02-02T09:09:58.030Z,100371.06
2023-02-02T09:12:25.848Z,100372.16
2023-02-02T09:14:54.669Z,100375.59
2023-02-02T09:17:22.293Z,100379.19
2023-02-02T09:19:49.789Z,100386.31
2023-02-02T09:22:17.319Z,100392.19
2023-02-02T09:24:44.799Z,100389.59
2023-02-02T09:27:12.338Z,100404.19
2023-02-02T09:29:39.819Z,100402.31
2023-02-02T09:32:08.933Z,100404.38
2023-02-02T09:34:36.645Z,100410.31
2023-02-02T09:37:04.171Z,100430.81
2023-02-02T09:39:31.829Z,100417.34
2023-02-02T09:42:19.631Z,100424.31
2023-02-02T09:45:00.586Z,100433.09
2023-02-02T09:47:41.036Z,100423.16
2023-02-02T09:50:19.437Z,100431.25
2023-02-02T09:52:52.157Z,100435.84
2023-02-02T09:55:34.875Z,100449.94
2023-02-02T09:58:09.811Z,100450.84
2023-02-02T10:00:42.981Z,100448.00
2023-02-02T10:03:17.641Z,100456.13
2023-02-02T10:05:52.555Z,100457.03
2023-02-02T10:08:34.739Z,100463.88
2023-02-02T10:11:07.291Z,100461.34
2023-02-02T10:13:39.073Z,100471.66
2023-02-02T10:16:11.683Z,100462.00
2023-02-02T10:18:48.694Z,100473.47
2023-02-02T10:21:24.858Z,100475.47
2023-02-02T10:23:54.504Z,100469.38
2023-02-02T10:26:30.159Z,100474.44
2023-02-02T10:29:09.949Z,100475.25
2023-02-02T10:31:45.333Z,100485.13
2023-02-02T10:34:18.847Z,100483.28
2023-02-02T10:36:57.157Z,100486.84
2023-02-02T10:39:35.864Z,100481.94
2023-02-02T10:42:14.959Z,100492.41
2023-02-02T10:44:49.697Z,100490.56
2023-02-02T10:47:24.562Z,100486.22
2023-02-02T10:50:02.386Z,100494.06
2023-02-02T10:52:35.642Z,100493.03
2023-02-02T10:55:08.275Z,100491.09
2023-02-02T10:57:50.396Z,100493.66
2023-02-02T11:00:25.095Z,100493.06
2023-02-02T11:02:53.960Z,100491.19
2023-02-02T11:05:43.945Z,100496.63
2023-02-02T11:08:16.289Z,100499.22
2023-02-02T11:10:46.139Z,100499.03
2023-02-02T11:13:20.308Z,100487.78
2023-02-02T11:15:47.997Z,100500.75
2023-02-02T11:18:27.537Z,100503.34
2023-02-02T11:20:56.991Z,100512.19
2023-02-02T11:23:28.274Z,100503.41
2023-02-02T11:26:01.276Z,100506.03
2023-02-02T11:28:36.098Z,100509.41
2023-02-02T11:31:04.242Z,100511.16
2023-02-02T11:33:34.078Z,100504.19
2023-02-02T11:36:06.087Z,100506.72
2023-02-02T11:38:33.829Z,100489.44
2023-02-02T11:41:04.734Z,100498.91
2023-02-02T11:43:40.744Z,100493.25
2023-02-02T11:46:20.347Z,100492.84
2023-02-02T11:48:52.502Z,100495.69
2023-02-02T11:51:25.749Z,100497.25
2023-02-02T11:54:03.815Z,100499.75
2023-02-02T11:56:31.576Z,100499.53
2023-02-02T11:59:03.566Z,100492.47
2023-02-02T12:01:33.823Z,100490.09
2023-02-02T12:04:02.744Z,100493.59
2023-02-02T12:06:37.465Z,100491.38
2023-02-02T12:09:14.810Z,100488.72
2023-02-02T12:11:53.706Z,100487.91
2023-02-02T12:14:33.430Z,100492.97
2023-02-02T12:17:11.742Z,100495.88
2023-02-02T12:20:07.909Z,100498.47
2023-02-02T12:22:47.732Z,100492.41
2023-02-02T12:25:44.484Z,100497.88
2023-02-02T12:28:26.255Z,100498.81
2023-02-02T12:31:00.917Z,100506.06
2023-02-02T12:33:38.097Z,100496.25
2023-02-02T12:36:23.215Z,100500.47
2023-02-02T12:39:11.019Z,100513.66
2023-02-02T12:41:56.769Z,100499.63
2023-02-02T12:44:28.393Z,100503.78
2023-02-02T12:47:09.747Z,100504.09
2023-02-02T12:49:53.964Z,100506.03
2023-02-02T12:52:38.320Z,100509.22
2023-02-02T12:55:17.625Z,100506.41
2023-02-02T12:57:53.847Z,100511.16
2023-02-02T13:00:47.799Z,100501.81
2023-02-02T13:03:28.543Z,100502.16
2023-02-02T13:06:28.577Z,100502.06
2023-02-02T13:09:02.241Z,100505.63
2023-02-02T13:11:39.587Z,100509.38
2023-02-02T13:14:12.295Z,100504.91
2023-02-02T13:16:44.226Z,100510.94
2023-02-02T13:19:16.519Z,100512.72
2023-02-02T13:21:45.760Z,100512.97
2023-02-02T13:24:16.586Z,100511.06
2023-02-02T13:26:48.753Z,100507.28
2023-02-02T13:29:28.451Z,100519.69
2023-02-02T13:32:00.881Z,100508.06
2023-02-02T13:34:36.347Z,100511.53
2023-02-02T13:37:12.122Z,100513.72
2023-02-02T13:39:42.955Z,100525.88
2023-02-02T13:42:26.738Z,100521.50
2023-02-02T13:44:58.840Z,100523.97
2023-02-02T13:47:31.967Z,100525.72
2023-02-02T13:50:05.539Z,100526.63
2023-02-02T13:52:53.791Z,100528.66
2023-02-02T13:55:43.406Z,100521.28
2023-02-02T13:58:32.326Z,100526.34
2023-02-02T14:01:06.295Z,100530.13
2023-02-02T14:03:39.647Z,100524.88
2023-02-02T14:06:11.207Z,100533.69
2023-02-02T14:08:45.721Z,100533.97
2023-02-02T14:11:21.033Z,100528.56
2023-02-02T14:14:09.825Z,100524.50
2023-02-02T14:16:49.917Z,100527.72
2023-02-02T14:19:19.521Z,100525.31
2023-02-02T14:22:01.271Z,100540.31
2023-02-02T14:24:43.351Z,100536.63
2023-02-02T14:27:59.412Z,100542.50
2023-02-02T14:30:33.049Z,100542.94
2023-02-02T14:33:25.241Z,100551.53
2023-02-02T14:36:03.717Z,100558.22
2023-02-02T14:39:05.403Z,100562.56
2023-02-02T14:42:17.248Z,100548.69
2023-02-02T14:45:21.283Z,100558.16
2023-02-02T14:47:53.586Z,100558.09
2023-02-02T14:50:27.897Z,100552.91
2023-02-02T14:53:08.320Z,100553.34
2023-02-02T14:55:39.385Z,100557.91
2023-02-02T14:58:08.428Z,100564.09
2023-02-02T15:00:36.581Z,100579.88
2023-02-02T15:03:36.295Z,100573.81
2023-02-02T15:06:08.516Z,100572.59
2023-02-02T15:08:36.246Z,100579.09
2023-02-02T15:11:29.244Z,100582.59
2023-02-02T15:14:06.901Z,100583.66
2023-02-02T15:16:38.437Z,100584.50
2023-02-02T15:19:15.088Z,100586.75
2023-02-02T15:21:43.576Z,100583.19
2023-02-02T15:24:22.748Z,100590.97
2023-02-02T15:26:53.529Z,100588.44
2023-02-02T15:29:33.138Z,100593.75
2023-02-02T15:32:01.463Z,100591.91
2023-02-02T15:34:39.777Z,100584.91
2023-02-02T15:37:09.292Z,100590.88
2023-02-02T15:39:41.123Z,100596.59
2023-02-02T15:42:34.602Z,100601.22
2023-02-02T15:45:02.157Z,100608.25
2023-02-02T15:47:33.727Z,100605.78
2023-02-02T15:50:02.817Z,100603.31
2023-02-02T15:52:35.376Z,100605.94
2023-02-02T15:55:03.101Z,100603.41
2023-02-02T15:57:33.018Z,100607.72
2023-02-02T16:00:01.838Z,100603.31
2023-02-02T16:02:39.223Z,100612.13
2023-02-02T16:05:26.615Z,100614.16
2023-02-02T16:08:05.104Z,100611.69
2023-02-02T16:10:34.251Z,100614.59
2023-02-02T16:13:02.260Z,100613.19
2023-02-02T16:15:31.666Z,100619.31
2023-02-02T16:18:00.506Z,100618.47
2023-02-02T16:20:30.439Z,100622.59
2023-02-02T16:23:01.827Z,100618.50
2023-02-02T16:25:33.632Z,100625.59
2023-02-02T16:28:03.125Z,100626.22
2023-02-02T16:30:33.292Z,100624.47
2023-02-02T16:33:44.585Z,100635.34
2023-02-02T16:36:25.097Z,100629.88
2023-02-02T16:38:54.717Z,100635.06
2023-02-02T16:41:32.096Z,100637.50
2023-02-02T16:44:30.428Z,100633.72
2023-02-02T16:46:59.235Z,100641.38
2023-02-02T16:49:28.083Z,100643.56
2023-02-02T16:52:12.624Z,100647.66
2023-02-02T16:54:43.709Z,100656.16
2023-02-02T16:57:19.060Z,100650.56
2023-02-02T16:59:49.556Z,100661.69
2023-02-02T17:02:25.352Z,100651.94
2023-02-02T17:04:57.720Z,100660.00
2023-02-02T17:07:27.215Z,100663.47
2023-02-02T17:10:23.007Z,100655.41
2023-02-02T17:12:50.540Z,100660.97
2023-02-02T17:15:34.834Z,100669.81
2023-02-02T17:18:03.838Z,100660.41
2023-02-02T17:20:32.420Z,100655.78
2023-02-02T17:23:04.632Z,100663.06
2023-02-02T17:25:36.937Z,100647.16
2023-02-02T17:28:08.599Z,100659.56
2023-02-02T17:30:36.306Z,100657.63
2023-02-02T17:33:03.877Z,100653.09
2023-02-02T17:35:47.218Z,100662.81
2023-02-02T17:38:20.621Z,100669.91
2023-02-02T17:40:48.519Z,100679.47
2023-02-02T17:43:16.801Z,100677.88
2023-02-02T17:45:44.867Z,100682.25
2023-02-02T17:48:13.472Z,100687.69
2023-02-02T17:50:41.867Z,100679.69
2023-02-02T17:53:12.244Z,100685.84
2023-02-02T17:55:42.775Z,100679.72
2023-02-02T17:58:13.083Z,100674.25
2023-02-02T18:00:41.687Z,100688.50
2023-02-02T18:03:13.867Z,100677.06
2023-02-02T18:05:43.541Z,100687.69
2023-02-02T18:08:12.139Z,100674.94
2023-02-02T18:10:41.309Z,100689.09
2023-02-02T18:13:09.427Z,100682.16
2023-02-02T18:15:36.931Z,100685.03
2023-02-02T18:18:04.501Z,100686.91
2023-02-02T18:20:31.990Z,100690.13
2023-02-02T18:22:59.502Z,100692.72
2023-02-02T18:25:27.424Z,100682.28
2023-02-02T18:27:57.599Z,100689.16
2023-02-02T18:30:25.751Z,100684.13
2023-02-02T18:32:53.689Z,100690.19
2023-02-02T18:35:21.215Z,100686.53
2023-02-02T18:37:49.353Z,100692.72
2023-02-02T18:40:17.047Z,100690.19
2023-02-02T18:42:44.567Z,100690.44
2023-02-02T18:45:13.757Z,100685.66
2023-02-02T18:47:41.631Z,100687.41
2023-02-02T18:50:10.246Z,100688.34
2023-02-02T18:52:37.751Z,100689.22
2023-02-02T18:55:05.505Z,100684.00
2023-02-02T18:57:33.012Z,100684.63
2023-02-02T19:00:00.568Z,100672.50
2023-02-02T19:02:29.452Z,100669.84
2023-02-02T19:05:14.458Z,100666.47
2023-02-02T19:07:57.961Z,100668.91
2023-02-02T19:10:27.683Z,100660.19
2023-02-02T19:12:58.238Z,100662.94
2023-02-02T19:15:26.617Z,100665.31
2023-02-02T19:17:56.244Z,100672.53
2023-02-02T19:20:29.396Z,100670.88
2023-02-02T19:23:03.732Z,100667.06
2023-02-02T19:25:31.294Z,100667.28
2023-02-02T19:27:59.435Z,100675.94
2023-02-02T19:30:27.349Z,100676.09
2023-02-02T19:32:56.485Z,100675.78
2023-02-02T19:35:32.000Z,100681.22
2023-02-02T19:38:03.366Z,100679.47
2023-02-02T19:40:30.891Z,100687.06
2023-02-02T19:43:09.500Z,100691.69
2023-02-02T19:45:37.591Z,100694.22
2023-02-02T19:48:16.055Z,100685.63
2023-02-02T19:50:43.763Z,100683.59
2023-02-02T19:53:17.345Z,100693.16
2023-02-02T19:55:45.161Z,100697.28
2023-02-02T19:58:17.824Z,100694.19
2023-02-02T20:00:46.795Z,100690.50
2023-02-02T20:03:18.362Z,100689.81
2023-02-02T20:05:47.618Z,100688.78
2023-02-02T20:08:23.794Z,100694.84
2023-02-02T20:10:52.350Z,100693.88
2023-02-02T20:13:22.113Z,100693.59
2023-02-02T20:15:51.210Z,100681.19
2023-02-02T20:18:22.537Z,100672.84
2023-02-02T20:20:54.052Z,100668.66
2023-02-02T20:23:29.739Z,100666.19
2023-02-02T20:25:59.489Z,100675.78
2023-02-02T20:28:41.510Z,100674.97
2023-02-02T20:31:12.002Z,100679.25
2023-02-02T20:33:44.464Z,100671.94
2023-02-02T20:36:36.634Z,100676.09
2023-02-02T20:39:33.841Z,100676.78
2023-02-02T20:42:01.991Z,100681.50
2023-02-02T20:44:30.576Z,100678.72
2023-02-02T20:47:00.137Z,100681.41
2023-02-02T20:49:31.644Z,100671.97
2023-02-02T20:52:01.707Z,100679.75
2023-02-02T20:54:29.282Z,100672.59
2023-02-02T20:56:56.950Z,100677.16
2023-02-02T20:59:25.092Z,100683.13
2023-02-02T21:01:52.912Z,100675.41
2023-02-02T21:04:21.842Z,100682.41
2023-02-02T21:06:51.098Z,100680.91
2023-02-02T21:09:18.836Z,100682.63
2023-02-02T21:11:46.364Z,100682.50
2023-02-02T21:14:13.894Z,100697.28
2023-02-02T21:16:41.472Z,100685.38
2023-02-02T21:19:09.374Z,100707.34
2023-02-02T21:21:37.181Z,100697.38
2023-02-02T21:24:07.864Z,100716.47
2023-02-02T21:26:35.362Z,100708.53
2023-02-02T21:29:03.427Z,100729.75
2023-02-02T21:31:34.852Z,100720.34
2023-02-02T21:34:02.649Z,100735.56
2023-02-02T21:36:34.272Z,100727.06
2023-02-02T21:39:13.181Z,100730.34
2023-02-02T21:41:40.691Z,100733.06
2023-02-02T21:44:14.143Z,100724.84
2023-02-02T21:46:41.916Z,100733.50
2023-02-02T21:49:18.847Z,100734.53
2023-02-02T21:51:46.443Z,100731.53
2023-02-02T21:54:23.174Z,100731.97
2023-02-02T21:56:51.605Z,100711.78
2023-02-02T21:59:21.323Z,100710.63
2023-02-02T22:01:50.088Z,100701.81
2023-02-02T22:04:23.426Z,100705.03
2023-02-02T22:06:53.941Z,100693.59
2023-02-02T22:09:25.439Z,100691.94
2023-02-02T22:11:58.334Z,100711.41
2023-02-02T22:14:36.863Z,100704.47
2023-02-02T22:17:18.594Z,100704.34
2023-02-02T22:19:46.336Z,100693.53
2023-02-02T22:22:19.385Z,100688.66
2023-02-02T22:24:54.696Z,100694.06
2023-02-02T22:27:23.581Z,100695.25
2023-02-02T22:29:55.877Z,100695.38
2023-02-02T22:32:23.373Z,100690.31
2023-02-02T22:34:50.816Z,100699.25
2023-02-02T22:37:18.296Z,100691.94
2023-02-02T22:39:45.763Z,100710.94
2023-02-02T22:42:14.630Z,100711.56
2023-02-02T22:44:43.890Z,100701.81
2023-02-02T22:47:11.375Z,100695.13
2023-02-02T22:49:38.838Z,100692.13
2023-02-02T22:52:06.336Z,100684.72
2023-02-02T22:54:33.807Z,100681.50
2023-02-02T22:57:01.344Z,100684.28
2023-02-02T22:59:30.136Z,100668.81
2023-02-02T23:01:57.608Z,100666.31
2023-02-02T23:04:25.116Z,100698.19
2023-02-02T23:06:52.895Z,100689.22
2023-02-02T23:09:20.384Z,100681.31
2023-02-02T23:11:49.416Z,100690.66
2023-02-02T23:14:17.040Z,100686.16
2023-02-02T23:16:45.881Z,100675.63
2023-02-02T23:19:13.345Z,100677.47
2023-02-02T23:21:40.824Z,100686.97
2023-02-02T23:24:09.022Z,100690.38
2023-02-02T23:26:36.519Z,100693.53
2023-02-02T23:29:04.269Z,100682.13
2023-02-02T23:31:31.857Z,100688.41
2023-02-02T23:34:00.715Z,100686.41
2023-02-02T23:36:28.166Z,100690.59
2023-02-02T23:38:55.618Z,100672.84
2023-02-02T23:41:23.342Z,100671.22
2023-02-02T23:43:50.844Z,100659.06
2023-02-02T23:46:18.726Z,100656.47
2023-02-02T23:48:47.143Z,100651.16
2023-02-02T23:51:16.059Z,100649.06
2023-02-02T23:53:44.196Z,100649.09
2023-02-02T23:56:11.683Z,100641.00
2023-02-02T23:58:39.244Z,100646.16
